Alda, Nebraska
Current Conditions -  °F | °C
As of 7:53 AM on Friday 24 Oct 2014 (Local Time) from KGRI Reporting Station
Haze Haze  
Wind Chill: 57°   Ceiling: Unl
Heat Index: 57°   Visibility: 5mi
Dew Point: 53°   Wind: 12mph
Humidity: 87%   Direction: 230°SW
Pressure: 29.93"   Gusts: NA
Location:  40.87°N, 98.47°W
Report Text: KGRI 241253Z 23010KT 5SM BR CLR 14/12 A2993 RMK AO2 SLP134 T01390117
Loading
Personal Weather Stations






























Interactive Weather Map
Tropical Storm Tracking
New forecast layout! Learn more

10-Day Weather Forecast

Advertisements
Track Severe Weather on mobile